BAW8DT KLAX-EGLL
Flight info
| Callsign | BAW8DT |
|---|---|
| Flight time | N/A |
| Altitude | 35000 |
| Route | DOTSS2 CLEEE DCT EED J236 TBC DCT DBL DCT CYS DCT ABR DCT 50N092W 58N080W/N0484F370 DCT COPUR DCT MIBNO/M085F370 DCT NIFTY DCT 61N050W 61N040W 61N030W 60N020W DCT GOMUP/N0488F370 DCT GINGA DCT MAGEE DCT KELLY L10 WAL UY53 NUGRA |
| Aircraft | B78X/H-SDE1E2E3FGHIJ2J3J4J5M1RWXY/LB1D1 |
Departure
| Time | 2026-04-25 22:49 |
|---|---|
| Airport | Los Angeles International Airport (KLAX) |
Arrival
| Time | N/A |
|---|---|
| Airport | London Heathrow Airport (EGLL) |
| Time | Latitude | Longitude | Altitude | Speed | Heading |
|---|---|---|---|---|---|
| 2026-04-25 21:54 | 33.94098 | -118.40759 | 131 ft | 0 kts | 69° |
| 2026-04-25 22:35 | 33.94097 | -118.40762 | 123 ft | 2 kts | 69° |
| 2026-04-25 22:35 | 33.94094 | -118.40782 | 127 ft | 2 kts | 47° |
| 2026-04-25 22:35 | 33.94090 | -118.40784 | 129 ft | 0 kts | 76° |
| 2026-04-25 22:35 | 33.94087 | -118.40797 | 131 ft | 2 kts | 92° |
| 2026-04-25 22:36 | 33.94089 | -118.40817 | 131 ft | 2 kts | 123° |
| 2026-04-25 22:36 | 33.94099 | -118.40833 | 123 ft | 2 kts | 155° |
| 2026-04-25 22:36 | 33.94107 | -118.40838 | 126 ft | 0 kts | 171° |
| 2026-04-25 22:38 | 33.94106 | -118.40837 | 131 ft | 2 kts | 171° |
| 2026-04-25 22:38 | 33.94068 | -118.40830 | 129 ft | 9 kts | 172° |
| 2026-04-25 22:39 | 33.94002 | -118.40820 | 129 ft | 9 kts | 173° |
| 2026-04-25 22:39 | 33.93977 | -118.40816 | 129 ft | 0 kts | 173° |
| 2026-04-25 22:40 | 33.93977 | -118.40817 | 129 ft | 0 kts | 173° |
| 2026-04-25 22:41 | 33.93977 | -118.40816 | 129 ft | 0 kts | 173° |
| 2026-04-25 22:41 | 33.93977 | -118.40817 | 129 ft | 0 kts | 173° |
| 2026-04-25 22:41 | 33.93977 | -118.40816 | 129 ft | 0 kts | 173° |
| 2026-04-25 22:41 | 33.93961 | -118.40814 | 126 ft | 4 kts | 174° |
| 2026-04-25 22:42 | 33.93930 | -118.40807 | 129 ft | 5 kts | 166° |
| 2026-04-25 22:42 | 33.93892 | -118.40780 | 125 ft | 8 kts | 137° |
| 2026-04-25 22:42 | 33.93839 | -118.40732 | 126 ft | 10 kts | 149° |
| 2026-04-25 22:42 | 33.93814 | -118.40665 | 120 ft | 10 kts | 94° |
| 2026-04-25 22:43 | 33.93821 | -118.40566 | 124 ft | 14 kts | 84° |
| 2026-04-25 22:43 | 33.93833 | -118.40442 | 131 ft | 15 kts | 83° |
| 2026-04-25 22:43 | 33.93846 | -118.40313 | 131 ft | 16 kts | 83° |
| 2026-04-25 22:43 | 33.93860 | -118.40175 | 127 ft | 17 kts | 82° |
| 2026-04-25 22:44 | 33.93875 | -118.40035 | 131 ft | 17 kts | 83° |
| 2026-04-25 22:44 | 33.93889 | -118.39895 | 131 ft | 17 kts | 83° |
| 2026-04-25 22:44 | 33.93904 | -118.39750 | 130 ft | 17 kts | 83° |
| 2026-04-25 22:44 | 33.93919 | -118.39604 | 131 ft | 18 kts | 83° |
| 2026-04-25 22:45 | 33.93935 | -118.39441 | 128 ft | 23 kts | 83° |
| 2026-04-25 22:45 | 33.93955 | -118.39244 | 126 ft | 24 kts | 83° |
| 2026-04-25 22:45 | 33.93975 | -118.39048 | 131 ft | 24 kts | 83° |
| 2026-04-25 22:45 | 33.93996 | -118.38853 | 131 ft | 24 kts | 83° |
| 2026-04-25 22:46 | 33.94015 | -118.38658 | 128 ft | 23 kts | 83° |
| 2026-04-25 22:46 | 33.94035 | -118.38468 | 128 ft | 22 kts | 83° |
| 2026-04-25 22:46 | 33.94054 | -118.38288 | 127 ft | 21 kts | 82° |
| 2026-04-25 22:46 | 33.94070 | -118.38134 | 129 ft | 16 kts | 82° |
| 2026-04-25 22:47 | 33.94074 | -118.38037 | 131 ft | 9 kts | 106° |
| 2026-04-25 22:47 | 33.94032 | -118.38006 | 126 ft | 7 kts | 170° |
| 2026-04-25 22:47 | 33.93989 | -118.38039 | 127 ft | 9 kts | 242° |
| 2026-04-25 22:47 | 33.93972 | -118.38161 | 131 ft | 24 kts | 263° |
| 2026-04-25 22:48 | 33.93933 | -118.38527 | 131 ft | 71 kts | 263° |
| 2026-04-25 22:48 | 33.93849 | -118.39347 | 132 ft | 126 kts | 263° |
| 2026-04-25 22:48 | 33.93724 | -118.40590 | 137 ft | 172 kts | 263° |
| 2026-04-25 22:48 | 33.93584 | -118.42075 | 429 ft | 178 kts | 263° |
| 2026-04-25 22:49 | 33.93426 | -118.43517 | 1126 ft | 176 kts | 258° |
| 2026-04-25 22:49 | 33.93256 | -118.45027 | 1781 ft | 185 kts | 261° |
| 2026-04-25 22:49 | 33.92783 | -118.46510 | 2219 ft | 201 kts | 230° |
| 2026-04-25 22:49 | 33.91803 | -118.47810 | 2726 ft | 219 kts | 230° |
| 2026-04-25 22:50 | 33.90826 | -118.49345 | 3273 ft | 241 kts | 229° |
| 2026-04-25 22:50 | 33.89668 | -118.50901 | 3908 ft | 257 kts | 232° |
| 2026-04-25 22:50 | 33.88575 | -118.52612 | 4931 ft | 260 kts | 232° |
| 2026-04-25 22:50 | 33.87420 | -118.54300 | 5937 ft | 263 kts | 228° |
| 2026-04-25 22:51 | 33.85908 | -118.55540 | 6857 ft | 269 kts | 203° |
| 2026-04-25 22:51 | 33.84054 | -118.55895 | 7754 ft | 276 kts | 177° |
| 2026-04-25 22:51 | 33.82140 | -118.55480 | 8642 ft | 282 kts | 170° |
| 2026-04-25 22:51 | 33.80213 | -118.54934 | 9554 ft | 287 kts | 169° |
| 2026-04-25 22:52 | 33.78255 | -118.54374 | 10369 ft | 293 kts | 171° |
| 2026-04-25 22:52 | 33.76207 | -118.53827 | 10876 ft | 310 kts | 171° |
| 2026-04-25 22:52 | 33.74031 | -118.53255 | 11326 ft | 329 kts | 171° |
| 2026-04-25 22:52 | 33.72532 | -118.52804 | 11597 ft | 344 kts | 165° |
| 2026-04-25 22:53 | 33.69765 | -118.50530 | 12123 ft | 384 kts | 134° |
| 2026-04-25 22:53 | 33.68366 | -118.47731 | 12829 ft | 400 kts | 116° |
| 2026-04-25 22:53 | 33.67404 | -118.44612 | 13587 ft | 410 kts | 111° |
| 2026-04-25 22:53 | 33.66545 | -118.41304 | 14304 ft | 418 kts | 111° |
| 2026-04-25 22:54 | 33.65601 | -118.37980 | 15027 ft | 423 kts | 114° |
| 2026-04-25 22:54 | 33.64694 | -118.34588 | 15684 ft | 433 kts | 102° |
| 2026-04-25 22:54 | 33.64459 | -118.30946 | 16392 ft | 442 kts | 92° |
| 2026-04-25 22:54 | 33.64443 | -118.27267 | 16895 ft | 452 kts | 91° |
| 2026-04-25 22:55 | 33.64458 | -118.23489 | 16988 ft | 451 kts | 91° |
| 2026-04-25 22:55 | 33.64477 | -118.19725 | 16982 ft | 451 kts | 91° |
| 2026-04-25 22:55 | 33.64473 | -118.15961 | 16962 ft | 451 kts | 92° |
| 2026-04-25 22:55 | 33.64463 | -118.12193 | 16962 ft | 451 kts | 92° |
| 2026-04-25 22:56 | 33.64461 | -118.08426 | 16966 ft | 452 kts | 91° |
| 2026-04-25 22:56 | 33.64463 | -118.04642 | 17245 ft | 456 kts | 91° |
| 2026-04-25 22:56 | 33.64458 | -118.00812 | 18027 ft | 460 kts | 91° |
| 2026-04-25 22:56 | 33.64450 | -117.96960 | 18699 ft | 464 kts | 91° |
| 2026-04-25 22:57 | 33.64443 | -117.93066 | 19319 ft | 469 kts | 91° |
| 2026-04-25 22:57 | 33.64436 | -117.89130 | 19915 ft | 474 kts | 91° |
| 2026-04-25 22:57 | 33.64427 | -117.85152 | 20493 ft | 479 kts | 91° |
| 2026-04-25 22:57 | 33.64425 | -117.81138 | 21070 ft | 484 kts | 89° |
| 2026-04-25 22:58 | 33.64872 | -117.77114 | 21627 ft | 490 kts | 77° |
| 2026-04-25 22:58 | 33.65628 | -117.73109 | 22143 ft | 495 kts | 76° |
| 2026-04-25 22:58 | 33.66425 | -117.69082 | 22678 ft | 500 kts | 76° |
| 2026-04-25 22:58 | 33.67227 | -117.65001 | 23209 ft | 504 kts | 77° |
| 2026-04-25 22:59 | 33.68008 | -117.60883 | 23692 ft | 509 kts | 77° |
| 2026-04-25 22:59 | 33.68795 | -117.56718 | 24127 ft | 513 kts | 77° |
| 2026-04-25 22:59 | 33.69602 | -117.52518 | 24583 ft | 517 kts | 76° |
| 2026-04-25 22:59 | 33.70414 | -117.48304 | 25040 ft | 521 kts | 77° |
| 2026-04-25 23:00 | 33.71223 | -117.44048 | 25452 ft | 524 kts | 77° |
| 2026-04-25 23:00 | 33.72034 | -117.39759 | 25856 ft | 528 kts | 77° |
| 2026-04-25 23:00 | 33.72852 | -117.35451 | 26286 ft | 531 kts | 77° |
| 2026-04-25 23:00 | 33.73677 | -117.31111 | 26692 ft | 535 kts | 77° |
| 2026-04-25 23:01 | 33.74502 | -117.26745 | 27102 ft | 538 kts | 77° |
| 2026-04-25 23:01 | 33.75061 | -117.22294 | 27515 ft | 540 kts | 89° |
| 2026-04-25 23:01 | 33.75067 | -117.19306 | 27775 ft | 540 kts | 93° |
| 2026-04-25 23:01 | 33.74980 | -117.14782 | 28182 ft | 544 kts | 93° |
| 2026-04-25 23:02 | 33.74873 | -117.10222 | 28570 ft | 547 kts | 93° |
| 2026-04-25 23:02 | 33.74773 | -117.05635 | 28950 ft | 550 kts | 93° |
| 2026-04-25 23:02 | 33.74684 | -117.01021 | 29317 ft | 553 kts | 93° |
| 2026-04-25 23:02 | 33.74589 | -116.96391 | 29688 ft | 556 kts | 93° |
| 2026-04-25 23:03 | 33.74449 | -116.90218 | 30133 ft | 560 kts | 94° |
| 2026-04-25 23:03 | 33.74376 | -116.87052 | 30322 ft | 562 kts | 93° |
| 2026-04-25 23:03 | 33.74272 | -116.82349 | 30599 ft | 565 kts | 93° |
| 2026-04-25 23:03 | 33.74166 | -116.77617 | 30889 ft | 567 kts | 93° |
| 2026-04-25 23:04 | 33.74054 | -116.72856 | 31104 ft | 570 kts | 94° |
| 2026-04-25 23:04 | 33.73944 | -116.68152 | 31392 ft | 572 kts | 95° |
| 2026-04-25 23:04 | 33.73829 | -116.63383 | 31833 ft | 571 kts | 94° |
| 2026-04-25 23:04 | 33.73710 | -116.58614 | 32278 ft | 570 kts | 94° |
| 2026-04-25 23:05 | 33.73591 | -116.53859 | 32686 ft | 570 kts | 94° |
| 2026-04-25 23:05 | 33.73472 | -116.49095 | 33085 ft | 570 kts | 94° |
| 2026-04-25 23:05 | 33.73351 | -116.44341 | 33470 ft | 570 kts | 94° |
| 2026-04-25 23:05 | 33.73227 | -116.39592 | 33873 ft | 569 kts | 94° |
| 2026-04-25 23:06 | 33.73100 | -116.34838 | 34173 ft | 569 kts | 94° |
| 2026-04-25 23:06 | 33.72974 | -116.30089 | 34483 ft | 570 kts | 94° |
| 2026-04-25 23:06 | 33.72845 | -116.25331 | 34774 ft | 570 kts | 94° |
| 2026-04-25 23:06 | 33.72716 | -116.20643 | 34813 ft | 573 kts | 94° |
| 2026-04-25 23:07 | 33.73078 | -116.11178 | 34848 ft | 570 kts | 76° |
| 2026-04-25 23:07 | 33.74197 | -116.06615 | 34866 ft | 568 kts | 65° |
| 2026-04-25 23:07 | 33.75929 | -116.02379 | 34856 ft | 562 kts | 54° |
| 2026-04-25 23:08 | 33.80577 | -115.94913 | 34823 ft | 558 kts | 47° |
| 2026-04-25 23:08 | 33.85451 | -115.87632 | 34816 ft | 558 kts | 47° |
| 2026-04-25 23:09 | 33.90273 | -115.80319 | 34790 ft | 558 kts | 47° |
| 2026-04-25 23:09 | 33.95113 | -115.73010 | 34801 ft | 558 kts | 47° |
| 2026-04-25 23:10 | 33.99943 | -115.65682 | 34793 ft | 558 kts | 47° |
| 2026-04-25 23:10 | 34.04746 | -115.58388 | 34769 ft | 559 kts | 47° |
| 2026-04-25 23:11 | 34.09573 | -115.51041 | 34762 ft | 559 kts | 47° |
| 2026-04-25 23:11 | 34.14402 | -115.43673 | 34760 ft | 560 kts | 47° |
| 2026-04-25 23:12 | 34.19230 | -115.36295 | 34752 ft | 561 kts | 47° |
| 2026-04-25 23:12 | 34.24264 | -115.29146 | 34753 ft | 555 kts | 38° |
| 2026-04-25 23:13 | 34.30054 | -115.23019 | 34741 ft | 552 kts | 33° |
| 2026-04-25 23:13 | 34.36048 | -115.17219 | 34734 ft | 551 kts | 32° |
| 2026-04-25 23:14 | 34.42090 | -115.11487 | 34736 ft | 554 kts | 32° |
| 2026-04-25 23:14 | 34.48172 | -115.05740 | 34735 ft | 554 kts | 32° |
| 2026-04-25 23:15 | 34.54240 | -115.00001 | 34723 ft | 553 kts | 32° |
| 2026-04-25 23:15 | 34.60323 | -114.94282 | 34732 ft | 552 kts | 31° |
| 2026-04-25 23:16 | 34.66432 | -114.88635 | 34732 ft | 552 kts | 31° |
| 2026-04-25 23:16 | 34.72549 | -114.83007 | 34749 ft | 552 kts | 31° |
| 2026-04-25 23:17 | 34.78678 | -114.77369 | 34756 ft | 553 kts | 31° |
| 2026-04-25 23:17 | 34.84386 | -114.71000 | 34773 ft | 563 kts | 45° |
| 2026-04-25 23:18 | 34.89062 | -114.63312 | 34759 ft | 568 kts | 54° |
| 2026-04-25 23:18 | 34.93241 | -114.55113 | 34749 ft | 570 kts | 56° |
| 2026-04-25 23:19 | 34.97299 | -114.46804 | 34722 ft | 570 kts | 57° |
| 2026-04-25 23:19 | 35.01091 | -114.38320 | 34731 ft | 571 kts | 63° |
| 2026-04-25 23:20 | 35.04411 | -114.29504 | 34724 ft | 572 kts | 64° |
| 2026-04-25 23:20 | 35.07691 | -114.20657 | 34761 ft | 572 kts | 63° |
| 2026-04-25 23:21 | 35.10996 | -114.11810 | 34807 ft | 573 kts | 64° |
| 2026-04-25 23:21 | 35.14275 | -114.02941 | 34843 ft | 573 kts | 64° |
| 2026-04-25 23:22 | 35.17539 | -113.94137 | 34869 ft | 573 kts | 64° |
| 2026-04-25 23:23 | 35.22448 | -113.80812 | 34854 ft | 574 kts | 64° |
| 2026-04-25 23:23 | 35.25718 | -113.71912 | 34825 ft | 574 kts | 64° |
| 2026-04-25 23:24 | 35.28984 | -113.62994 | 34799 ft | 574 kts | 64° |
| 2026-04-25 23:24 | 35.32241 | -113.54077 | 34773 ft | 574 kts | 64° |
| 2026-04-25 23:25 | 35.35496 | -113.45140 | 34765 ft | 574 kts | 64° |
| 2026-04-25 23:25 | 35.38748 | -113.36188 | 34780 ft | 575 kts | 64° |
| 2026-04-25 23:26 | 35.41987 | -113.27241 | 34787 ft | 574 kts | 64° |
| 2026-04-25 23:26 | 35.45223 | -113.18282 | 34798 ft | 574 kts | 64° |
| 2026-04-25 23:27 | 35.48434 | -113.09365 | 34810 ft | 575 kts | 64° |
| 2026-04-25 23:27 | 35.51658 | -113.00388 | 34818 ft | 574 kts | 64° |
| 2026-04-25 23:28 | 35.54866 | -112.91428 | 34824 ft | 573 kts | 64° |
| 2026-04-25 23:28 | 35.58065 | -112.82469 | 34833 ft | 573 kts | 64° |
| 2026-04-25 23:29 | 35.61257 | -112.73503 | 34840 ft | 573 kts | 64° |
| 2026-04-25 23:29 | 35.64446 | -112.64520 | 34851 ft | 573 kts | 65° |
| 2026-04-25 23:30 | 35.67629 | -112.55529 | 34859 ft | 573 kts | 65° |
| 2026-04-25 23:30 | 35.70805 | -112.46528 | 34869 ft | 574 kts | 65° |
| 2026-04-25 23:31 | 35.73979 | -112.37509 | 34907 ft | 573 kts | 65° |
| 2026-04-25 23:31 | 35.77139 | -112.28505 | 34940 ft | 573 kts | 65° |
| 2026-04-25 23:32 | 35.80291 | -112.19493 | 34964 ft | 573 kts | 65° |
| 2026-04-25 23:32 | 35.83441 | -112.10465 | 34975 ft | 573 kts | 65° |
| 2026-04-25 23:33 | 35.86585 | -112.01426 | 34966 ft | 574 kts | 65° |
| 2026-04-25 23:33 | 35.89721 | -111.92383 | 34936 ft | 573 kts | 65° |
| 2026-04-25 23:34 | 35.92845 | -111.83348 | 34888 ft | 572 kts | 65° |
| 2026-04-25 23:34 | 35.95952 | -111.74343 | 34817 ft | 564 kts | 67° |
| 2026-04-25 23:35 | 35.99000 | -111.65463 | 34778 ft | 567 kts | 67° |
| 2026-04-25 23:35 | 36.02075 | -111.56500 | 34765 ft | 567 kts | 67° |
| 2026-04-25 23:36 | 36.05140 | -111.47526 | 34757 ft | 567 kts | 67° |
| 2026-04-25 23:36 | 36.08202 | -111.38541 | 34753 ft | 567 kts | 67° |
| 2026-04-25 23:37 | 36.11354 | -111.29598 | 34762 ft | 567 kts | 58° |
| 2026-04-25 23:37 | 36.13527 | -111.25540 | 34770 ft | 564 kts | 47° |
| 2026-04-25 23:37 | 36.16171 | -111.21997 | 34763 ft | 561 kts | 41° |
| 2026-04-25 23:38 | 36.21681 | -111.15165 | 34747 ft | 560 kts | 41° |
| 2026-04-25 23:38 | 36.27206 | -111.08350 | 34744 ft | 560 kts | 41° |
| 2026-04-25 23:39 | 36.32712 | -111.01504 | 34734 ft | 560 kts | 41° |
| 2026-04-25 23:39 | 36.38216 | -110.94673 | 34729 ft | 559 kts | 41° |
| 2026-04-25 23:40 | 36.43698 | -110.87839 | 34725 ft | 558 kts | 41° |
| 2026-04-25 23:40 | 36.49179 | -110.81001 | 34718 ft | 557 kts | 41° |
| 2026-04-25 23:41 | 36.54601 | -110.74216 | 34711 ft | 556 kts | 41° |
| 2026-04-25 23:41 | 36.60056 | -110.67380 | 34713 ft | 557 kts | 41° |
| 2026-04-25 23:42 | 36.65511 | -110.60527 | 34711 ft | 556 kts | 42° |
| 2026-04-25 23:42 | 36.70945 | -110.53687 | 34700 ft | 555 kts | 42° |
| 2026-04-25 23:43 | 36.76369 | -110.46844 | 34694 ft | 554 kts | 42° |
| 2026-04-25 23:43 | 36.81784 | -110.39998 | 34692 ft | 555 kts | 42° |
| 2026-04-25 23:44 | 36.87194 | -110.33144 | 34676 ft | 554 kts | 42° |
| 2026-04-25 23:44 | 36.92608 | -110.26269 | 34668 ft | 554 kts | 42° |
| 2026-04-25 23:45 | 36.97998 | -110.19410 | 34663 ft | 553 kts | 42° |
| 2026-04-25 23:45 | 37.03394 | -110.12531 | 34663 ft | 554 kts | 42° |
| 2026-04-25 23:46 | 37.08794 | -110.05629 | 34654 ft | 554 kts | 42° |
| 2026-04-25 23:46 | 37.13272 | -109.99895 | 34659 ft | 554 kts | 42° |
| 2026-04-25 23:47 | 37.19535 | -109.91858 | 34654 ft | 556 kts | 42° |
| 2026-04-25 23:47 | 37.24938 | -109.84908 | 34653 ft | 555 kts | 42° |
| 2026-04-25 23:48 | 37.29456 | -109.79086 | 34652 ft | 556 kts | 42° |
| 2026-04-25 23:48 | 37.34804 | -109.72179 | 34698 ft | 554 kts | 42° |
| 2026-04-25 23:49 | 37.40175 | -109.65228 | 34756 ft | 554 kts | 42° |
| 2026-04-25 23:49 | 37.45535 | -109.58275 | 34806 ft | 553 kts | 42° |
| 2026-04-25 23:50 | 37.50891 | -109.51313 | 34850 ft | 554 kts | 42° |
| 2026-04-25 23:50 | 37.56243 | -109.44340 | 34851 ft | 553 kts | 42° |
| 2026-04-25 23:51 | 37.61595 | -109.37352 | 34846 ft | 553 kts | 42° |
| 2026-04-25 23:51 | 37.66931 | -109.30369 | 34799 ft | 553 kts | 42° |
| 2026-04-25 23:52 | 37.72269 | -109.23369 | 34764 ft | 553 kts | 42° |
| 2026-04-25 23:52 | 37.77599 | -109.16364 | 34713 ft | 553 kts | 42° |
| 2026-04-25 23:53 | 37.82924 | -109.09349 | 34694 ft | 552 kts | 42° |
| 2026-04-25 23:53 | 37.88245 | -109.02324 | 34692 ft | 553 kts | 42° |
| 2026-04-25 23:54 | 37.93566 | -108.95285 | 34683 ft | 554 kts | 43° |
| 2026-04-25 23:54 | 37.98886 | -108.88228 | 34683 ft | 553 kts | 43° |
| 2026-04-25 23:55 | 38.04148 | -108.81235 | 34673 ft | 553 kts | 43° |
| 2026-04-25 23:55 | 38.09459 | -108.74160 | 34675 ft | 552 kts | 43° |
| 2026-04-25 23:56 | 38.14756 | -108.67089 | 34679 ft | 553 kts | 42° |
| 2026-04-25 23:56 | 38.20053 | -108.60001 | 34674 ft | 553 kts | 43° |
| 2026-04-25 23:57 | 38.25347 | -108.52901 | 34684 ft | 553 kts | 43° |
| 2026-04-25 23:57 | 38.30646 | -108.45779 | 34692 ft | 554 kts | 43° |
| 2026-04-25 23:58 | 38.35932 | -108.38656 | 34686 ft | 552 kts | 43° |
| 2026-04-25 23:58 | 38.41202 | -108.31540 | 34696 ft | 552 kts | 43° |
| 2026-04-25 23:59 | 38.46458 | -108.24427 | 34737 ft | 551 kts | 43° |
| 2026-04-25 23:59 | 38.51682 | -108.17341 | 34767 ft | 550 kts | 43° |
| 2026-04-26 00:00 | 38.56920 | -108.10220 | 34806 ft | 550 kts | 43° |
| 2026-04-26 00:00 | 38.62150 | -108.03094 | 34819 ft | 550 kts | 43° |
| 2026-04-26 00:01 | 38.67377 | -107.95954 | 34802 ft | 550 kts | 43° |
| 2026-04-26 00:01 | 38.72609 | -107.88794 | 34805 ft | 550 kts | 43° |
| 2026-04-26 00:02 | 38.77834 | -107.81623 | 34778 ft | 550 kts | 43° |
| 2026-04-26 00:02 | 38.83044 | -107.74459 | 34748 ft | 550 kts | 43° |
| 2026-04-26 00:03 | 38.88260 | -107.67269 | 34729 ft | 550 kts | 43° |
| 2026-04-26 00:03 | 38.93467 | -107.60076 | 34720 ft | 550 kts | 43° |
| 2026-04-26 00:04 | 38.98666 | -107.52875 | 34724 ft | 549 kts | 43° |
| 2026-04-26 00:04 | 39.03833 | -107.45705 | 34722 ft | 550 kts | 43° |
| 2026-04-26 00:05 | 39.09026 | -107.38480 | 34722 ft | 549 kts | 43° |
| 2026-04-26 00:05 | 39.14209 | -107.31252 | 34719 ft | 549 kts | 43° |
| 2026-04-26 00:06 | 39.19385 | -107.24018 | 34766 ft | 550 kts | 43° |
| 2026-04-26 00:06 | 39.24574 | -107.16748 | 34805 ft | 550 kts | 43° |
| 2026-04-26 00:07 | 39.29749 | -107.09481 | 34836 ft | 550 kts | 43° |
| 2026-04-26 00:07 | 39.34919 | -107.02203 | 34851 ft | 550 kts | 43° |
| 2026-04-26 00:08 | 39.40091 | -106.94906 | 34843 ft | 550 kts | 43° |
| 2026-04-26 00:08 | 39.45377 | -106.87806 | 34848 ft | 544 kts | 36° |
| 2026-04-26 00:09 | 39.50988 | -106.81316 | 34846 ft | 544 kts | 37° |
| 2026-04-26 00:09 | 39.56630 | -106.74780 | 34857 ft | 545 kts | 37° |
| 2026-04-26 00:10 | 39.62277 | -106.68221 | 34836 ft | 544 kts | 37° |
| 2026-04-26 00:10 | 39.67915 | -106.61658 | 34806 ft | 544 kts | 37° |
| 2026-04-26 00:11 | 39.73550 | -106.55082 | 34772 ft | 545 kts | 37° |
| 2026-04-26 00:11 | 39.79192 | -106.48483 | 34741 ft | 546 kts | 37° |
| 2026-04-26 00:12 | 39.84821 | -106.41884 | 34752 ft | 544 kts | 37° |
| 2026-04-26 00:12 | 39.90448 | -106.35274 | 34747 ft | 544 kts | 37° |
| 2026-04-26 00:13 | 39.96043 | -106.28685 | 34784 ft | 546 kts | 37° |
| 2026-04-26 00:13 | 40.01673 | -106.22038 | 34837 ft | 546 kts | 37° |
| 2026-04-26 00:14 | 40.07298 | -106.15383 | 34885 ft | 546 kts | 37° |
| 2026-04-26 00:14 | 40.12926 | -106.08710 | 34922 ft | 546 kts | 37° |
| 2026-04-26 00:15 | 40.18549 | -106.02025 | 34922 ft | 545 kts | 37° |
| 2026-04-26 00:15 | 40.24170 | -105.95329 | 34906 ft | 546 kts | 37° |
| 2026-04-26 00:16 | 40.29774 | -105.88635 | 34873 ft | 545 kts | 37° |
| 2026-04-26 00:16 | 40.35383 | -105.81922 | 34845 ft | 546 kts | 37° |
| 2026-04-26 00:17 | 40.40996 | -105.75186 | 34813 ft | 547 kts | 37° |
| 2026-04-26 00:17 | 40.46603 | -105.68442 | 34817 ft | 547 kts | 37° |
| 2026-04-26 00:18 | 40.52201 | -105.61693 | 34839 ft | 546 kts | 37° |
| 2026-04-26 00:18 | 40.57765 | -105.54971 | 34837 ft | 547 kts | 37° |
| 2026-04-26 00:19 | 40.63370 | -105.48180 | 34861 ft | 549 kts | 37° |
| 2026-04-26 00:19 | 40.68993 | -105.41353 | 34874 ft | 551 kts | 37° |
| 2026-04-26 00:20 | 40.74618 | -105.34506 | 34886 ft | 551 kts | 37° |
| 2026-04-26 00:20 | 40.80254 | -105.27631 | 34895 ft | 552 kts | 37° |
| 2026-04-26 00:21 | 40.85885 | -105.20742 | 34903 ft | 552 kts | 37° |
| 2026-04-26 00:21 | 40.91519 | -105.13836 | 34918 ft | 552 kts | 37° |
| 2026-04-26 00:22 | 40.97145 | -105.06922 | 34927 ft | 552 kts | 37° |
| 2026-04-26 00:22 | 41.02772 | -104.99990 | 34936 ft | 553 kts | 37° |
| 2026-04-26 00:23 | 41.08414 | -104.93022 | 34944 ft | 554 kts | 37° |
| 2026-04-26 00:23 | 41.14046 | -104.86048 | 34944 ft | 554 kts | 37° |
| 2026-04-26 00:24 | 41.19675 | -104.79061 | 34943 ft | 554 kts | 37° |
| 2026-04-26 00:24 | 41.25119 | -104.71760 | 34940 ft | 556 kts | 39° |
| 2026-04-26 00:25 | 41.30502 | -104.64452 | 34933 ft | 557 kts | 40° |
| 2026-04-26 00:25 | 41.35909 | -104.56986 | 34936 ft | 556 kts | 40° |
| 2026-04-26 00:26 | 41.41256 | -104.49652 | 34944 ft | 555 kts | 40° |
| 2026-04-26 00:26 | 41.46616 | -104.42241 | 34951 ft | 554 kts | 40° |
| 2026-04-26 00:27 | 41.51966 | -104.34847 | 34968 ft | 553 kts | 40° |
| 2026-04-26 00:27 | 41.57291 | -104.27457 | 34977 ft | 552 kts | 40° |
| 2026-04-26 00:28 | 41.62604 | -104.20072 | 34983 ft | 551 kts | 39° |
| 2026-04-26 00:28 | 41.67911 | -104.12674 | 35004 ft | 551 kts | 39° |
| 2026-04-26 00:29 | 41.73208 | -104.05270 | 35021 ft | 551 kts | 39° |
| 2026-04-26 00:29 | 41.78504 | -103.97852 | 35036 ft | 551 kts | 39° |
| 2026-04-26 00:30 | 41.83807 | -103.90401 | 35026 ft | 551 kts | 39° |
| 2026-04-26 00:30 | 41.89065 | -103.82997 | 35025 ft | 552 kts | 40° |
| 2026-04-26 00:31 | 41.94350 | -103.75533 | 35026 ft | 552 kts | 40° |
| 2026-04-26 00:31 | 41.99637 | -103.68050 | 35024 ft | 552 kts | 40° |
| 2026-04-26 00:32 | 42.04911 | -103.60565 | 35035 ft | 551 kts | 40° |
| 2026-04-26 00:32 | 42.12808 | -103.49322 | 35054 ft | 550 kts | 40° |
| 2026-04-26 00:33 | 42.18062 | -103.41817 | 35074 ft | 550 kts | 40° |
| 2026-04-26 00:33 | 42.23313 | -103.34297 | 35092 ft | 551 kts | 40° |
| 2026-04-26 00:34 | 42.28566 | -103.26755 | 35095 ft | 551 kts | 40° |
| 2026-04-26 00:34 | 42.33812 | -103.19202 | 35101 ft | 551 kts | 40° |
| 2026-04-26 00:35 | 42.38163 | -103.12924 | 35100 ft | 550 kts | 40° |
| 2026-04-26 00:35 | 42.43385 | -103.05369 | 35106 ft | 549 kts | 40° |
| 2026-04-26 00:36 | 42.48604 | -102.97801 | 35104 ft | 550 kts | 40° |
| 2026-04-26 00:36 | 42.53823 | -102.90211 | 35099 ft | 550 kts | 40° |
| 2026-04-26 00:37 | 42.59034 | -102.82614 | 35103 ft | 550 kts | 40° |
| 2026-04-26 00:37 | 42.64238 | -102.75007 | 35103 ft | 549 kts | 40° |
| 2026-04-26 00:38 | 42.69428 | -102.67399 | 35108 ft | 548 kts | 40° |
| 2026-04-26 00:38 | 42.74566 | -102.59850 | 35096 ft | 548 kts | 40° |
| 2026-04-26 00:39 | 42.79741 | -102.52226 | 35085 ft | 549 kts | 41° |
| 2026-04-26 00:39 | 42.84921 | -102.44572 | 35080 ft | 549 kts | 41° |
| 2026-04-26 00:40 | 42.90089 | -102.36917 | 35067 ft | 548 kts | 41° |
| 2026-04-26 00:40 | 42.95249 | -102.29254 | 35071 ft | 548 kts | 41° |
| 2026-04-26 00:41 | 43.00394 | -102.21592 | 35081 ft | 547 kts | 41° |
| 2026-04-26 00:41 | 43.05531 | -102.13922 | 35095 ft | 547 kts | 41° |
| 2026-04-26 00:42 | 43.10659 | -102.06244 | 35113 ft | 546 kts | 41° |
| 2026-04-26 00:42 | 43.15775 | -101.98565 | 35124 ft | 546 kts | 41° |
| 2026-04-26 00:43 | 43.20891 | -101.90864 | 35121 ft | 546 kts | 42° |
| 2026-04-26 00:43 | 43.26005 | -101.83145 | 35126 ft | 546 kts | 42° |
| 2026-04-26 00:44 | 43.31116 | -101.75412 | 35122 ft | 546 kts | 42° |
| 2026-04-26 00:44 | 43.36171 | -101.67741 | 35126 ft | 546 kts | 42° |
| 2026-04-26 00:45 | 43.41269 | -101.59984 | 35126 ft | 546 kts | 43° |
| 2026-04-26 00:45 | 43.46352 | -101.52229 | 35125 ft | 545 kts | 43° |
| 2026-04-26 00:46 | 43.51424 | -101.44471 | 35123 ft | 545 kts | 43° |
| 2026-04-26 00:46 | 43.56494 | -101.36693 | 35123 ft | 544 kts | 43° |
| 2026-04-26 00:47 | 43.61549 | -101.28919 | 35128 ft | 544 kts | 43° |
| 2026-04-26 00:47 | 43.66595 | -101.21136 | 35127 ft | 544 kts | 43° |
| 2026-04-26 00:48 | 43.71640 | -101.13334 | 35122 ft | 545 kts | 43° |
| 2026-04-26 00:48 | 43.76688 | -101.05506 | 35114 ft | 545 kts | 44° |
| 2026-04-26 00:49 | 43.81725 | -100.97674 | 35125 ft | 544 kts | 44° |
| 2026-04-26 00:49 | 43.86759 | -100.89825 | 35130 ft | 546 kts | 44° |
| 2026-04-26 00:50 | 43.91760 | -100.82004 | 35111 ft | 545 kts | 44° |
| 2026-04-26 00:50 | 43.96784 | -100.74127 | 35117 ft | 545 kts | 44° |
| 2026-04-26 00:51 | 44.01805 | -100.66234 | 35117 ft | 546 kts | 44° |
| 2026-04-26 00:51 | 44.06831 | -100.58308 | 35119 ft | 546 kts | 45° |
| 2026-04-26 00:52 | 44.11849 | -100.50374 | 35114 ft | 546 kts | 45° |
| 2026-04-26 00:52 | 44.16859 | -100.42432 | 35102 ft | 546 kts | 45° |
| 2026-04-26 00:53 | 44.21864 | -100.34475 | 35100 ft | 546 kts | 45° |
| 2026-04-26 00:53 | 44.26864 | -100.26503 | 35094 ft | 546 kts | 45° |
| 2026-04-26 00:54 | 44.31858 | -100.18519 | 35091 ft | 546 kts | 45° |
| 2026-04-26 00:54 | 44.36854 | -100.10508 | 35097 ft | 547 kts | 45° |
| 2026-04-26 00:55 | 44.41846 | -100.02481 | 35102 ft | 547 kts | 46° |
| 2026-04-26 00:55 | 44.46832 | -99.94441 | 35109 ft | 546 kts | 46° |
| 2026-04-26 00:56 | 44.51781 | -99.86438 | 35118 ft | 548 kts | 46° |
| 2026-04-26 00:56 | 44.56768 | -99.78351 | 35125 ft | 549 kts | 46° |
| 2026-04-26 00:57 | 44.61763 | -99.70228 | 35122 ft | 549 kts | 46° |
| 2026-04-26 00:57 | 44.66751 | -99.62091 | 35120 ft | 549 kts | 46° |
| 2026-04-26 00:58 | 44.71736 | -99.53939 | 35124 ft | 550 kts | 46° |
| 2026-04-26 00:58 | 44.76713 | -99.45774 | 35122 ft | 549 kts | 46° |
| 2026-04-26 00:59 | 44.81679 | -99.37604 | 35126 ft | 549 kts | 47° |
| 2026-04-26 00:59 | 44.86636 | -99.29425 | 35130 ft | 549 kts | 47° |
| 2026-04-26 01:00 | 44.91599 | -99.21211 | 35128 ft | 549 kts | 47° |
| 2026-04-26 01:00 | 44.96548 | -99.12999 | 35127 ft | 549 kts | 47° |
| 2026-04-26 01:01 | 45.01496 | -99.04763 | 35129 ft | 549 kts | 47° |
| 2026-04-26 01:01 | 45.06439 | -98.96512 | 35131 ft | 550 kts | 47° |
| 2026-04-26 01:02 | 45.11358 | -98.88277 | 35133 ft | 551 kts | 47° |
| 2026-04-26 01:02 | 45.16296 | -98.79984 | 35131 ft | 551 kts | 47° |
| 2026-04-26 01:03 | 45.21231 | -98.71674 | 35124 ft | 550 kts | 47° |
| 2026-04-26 01:03 | 45.26155 | -98.63358 | 35118 ft | 551 kts | 47° |
| 2026-04-26 01:04 | 45.31087 | -98.55002 | 35104 ft | 552 kts | 47° |
| 2026-04-26 01:04 | 45.36024 | -98.46614 | 35099 ft | 553 kts | 48° |
| 2026-04-26 01:05 | 45.40959 | -98.38220 | 35101 ft | 552 kts | 45° |
| 2026-04-26 01:05 | 45.46546 | -98.30931 | 35100 ft | 548 kts | 37° |
| 2026-04-26 01:06 | 45.52341 | -98.23836 | 35101 ft | 549 kts | 38° |
| 2026-04-26 01:06 | 45.58109 | -98.16679 | 35122 ft | 550 kts | 38° |
| 2026-04-26 01:07 | 45.63892 | -98.09526 | 35125 ft | 549 kts | 38° |
| 2026-04-26 01:07 | 45.69654 | -98.02356 | 35110 ft | 548 kts | 38° |
| 2026-04-26 01:08 | 45.75413 | -97.95181 | 35090 ft | 549 kts | 38° |
| 2026-04-26 01:08 | 45.81175 | -97.87976 | 35084 ft | 550 kts | 38° |
| 2026-04-26 01:09 | 45.86933 | -97.80757 | 35084 ft | 550 kts | 38° |
| 2026-04-26 01:09 | 45.92645 | -97.73575 | 35087 ft | 549 kts | 38° |
| 2026-04-26 01:10 | 45.98392 | -97.66328 | 35095 ft | 550 kts | 38° |
| 2026-04-26 01:10 | 46.04139 | -97.59061 | 35102 ft | 550 kts | 38° |
| 2026-04-26 01:11 | 46.09885 | -97.51773 | 35099 ft | 550 kts | 38° |
| 2026-04-26 01:11 | 46.15624 | -97.44474 | 35096 ft | 550 kts | 38° |
| 2026-04-26 01:12 | 46.21354 | -97.37165 | 35101 ft | 550 kts | 39° |
| 2026-04-26 01:12 | 46.27088 | -97.29830 | 35104 ft | 550 kts | 39° |
| 2026-04-26 01:13 | 46.32826 | -97.22468 | 35094 ft | 552 kts | 39° |
| 2026-04-26 01:13 | 46.38570 | -97.15077 | 35100 ft | 552 kts | 39° |
| 2026-04-26 01:14 | 46.44311 | -97.07668 | 35110 ft | 552 kts | 39° |
| 2026-04-26 01:14 | 46.50045 | -97.00247 | 35107 ft | 553 kts | 39° |
| 2026-04-26 01:15 | 46.55775 | -96.92808 | 35100 ft | 552 kts | 39° |
| 2026-04-26 01:15 | 46.61498 | -96.85357 | 35107 ft | 552 kts | 39° |
| 2026-04-26 01:16 | 46.67223 | -96.77881 | 35098 ft | 553 kts | 39° |
| 2026-04-26 01:16 | 46.72936 | -96.70397 | 35107 ft | 553 kts | 39° |
| 2026-04-26 01:17 | 46.78655 | -96.62885 | 35099 ft | 553 kts | 39° |
| 2026-04-26 01:17 | 46.84371 | -96.55354 | 35108 ft | 554 kts | 40° |
| 2026-04-26 01:18 | 46.90051 | -96.47846 | 35107 ft | 554 kts | 40° |
| 2026-04-26 01:18 | 46.95753 | -96.40290 | 35103 ft | 553 kts | 40° |
| 2026-04-26 01:19 | 47.01455 | -96.32710 | 35103 ft | 554 kts | 40° |
| 2026-04-26 01:19 | 47.07152 | -96.25113 | 35105 ft | 554 kts | 40° |
| 2026-04-26 01:20 | 47.12844 | -96.17499 | 35107 ft | 553 kts | 40° |
| 2026-04-26 01:20 | 47.18514 | -96.09893 | 35106 ft | 552 kts | 40° |
| 2026-04-26 01:21 | 47.24182 | -96.02266 | 35114 ft | 553 kts | 40° |
| 2026-04-26 01:21 | 47.29859 | -95.94603 | 35114 ft | 554 kts | 40° |
| 2026-04-26 01:22 | 47.34567 | -95.88231 | 35112 ft | 553 kts | 40° |
| 2026-04-26 01:22 | 47.40229 | -95.80546 | 35111 ft | 552 kts | 40° |
| 2026-04-26 01:23 | 47.45885 | -95.72846 | 35105 ft | 553 kts | 41° |
| 2026-04-26 01:23 | 47.51534 | -95.65131 | 35103 ft | 553 kts | 41° |
| 2026-04-26 01:24 | 47.57178 | -95.57400 | 35103 ft | 553 kts | 41° |
| 2026-04-26 01:24 | 47.62788 | -95.49691 | 35107 ft | 553 kts | 41° |
| 2026-04-26 01:25 | 47.68422 | -95.41926 | 35113 ft | 553 kts | 41° |
| 2026-04-26 01:25 | 47.74052 | -95.34144 | 35117 ft | 553 kts | 41° |
| 2026-04-26 01:26 | 47.79680 | -95.26338 | 35111 ft | 553 kts | 41° |
| 2026-04-26 01:26 | 47.85303 | -95.18516 | 35110 ft | 553 kts | 41° |
| 2026-04-26 01:27 | 47.90913 | -95.10687 | 35109 ft | 552 kts | 41° |
| 2026-04-26 01:27 | 47.96511 | -95.02851 | 35111 ft | 552 kts | 42° |
| 2026-04-26 01:28 | 48.02100 | -94.95002 | 35103 ft | 550 kts | 42° |
| 2026-04-26 01:28 | 48.07675 | -94.87150 | 35094 ft | 551 kts | 42° |
| 2026-04-26 01:29 | 48.13241 | -94.79284 | 35091 ft | 550 kts | 42° |
| 2026-04-26 01:29 | 48.18800 | -94.71405 | 35086 ft | 550 kts | 42° |
| 2026-04-26 01:30 | 48.24309 | -94.63571 | 35085 ft | 550 kts | 42° |
| 2026-04-26 01:30 | 48.29855 | -94.55661 | 35086 ft | 549 kts | 42° |
| 2026-04-26 01:31 | 48.35384 | -94.47750 | 35089 ft | 548 kts | 42° |
| 2026-04-26 01:31 | 48.40903 | -94.39829 | 35093 ft | 548 kts | 43° |
| 2026-04-26 01:32 | 48.46414 | -94.31894 | 35094 ft | 548 kts | 43° |
| 2026-04-26 01:32 | 48.51919 | -94.23941 | 35093 ft | 549 kts | 43° |
| 2026-04-26 01:33 | 48.57429 | -94.15957 | 35092 ft | 549 kts | 43° |
| 2026-04-26 01:33 | 48.62930 | -94.07960 | 35088 ft | 548 kts | 43° |
| 2026-04-26 01:34 | 48.68410 | -93.99969 | 35092 ft | 547 kts | 43° |
| 2026-04-26 01:34 | 48.73890 | -93.91952 | 35087 ft | 548 kts | 43° |
| 2026-04-26 01:35 | 48.79365 | -93.83916 | 35091 ft | 548 kts | 43° |
| 2026-04-26 01:35 | 48.84796 | -93.75920 | 35088 ft | 547 kts | 43° |
| 2026-04-26 01:36 | 48.90260 | -93.67850 | 35084 ft | 547 kts | 43° |
| 2026-04-26 01:37 | 48.98428 | -93.55737 | 35085 ft | 546 kts | 43° |
| 2026-04-26 01:37 | 49.03865 | -93.47640 | 35085 ft | 546 kts | 43° |
| 2026-04-26 01:38 | 49.09255 | -93.39589 | 35084 ft | 546 kts | 43° |
| 2026-04-26 01:38 | 49.14700 | -93.31428 | 35084 ft | 545 kts | 44° |
| 2026-04-26 01:39 | 49.20065 | -93.23363 | 35081 ft | 544 kts | 44° |
| 2026-04-26 01:39 | 49.25460 | -93.15224 | 35087 ft | 544 kts | 44° |
| 2026-04-26 01:40 | 49.30840 | -93.07084 | 35086 ft | 543 kts | 44° |
| 2026-04-26 01:40 | 49.36204 | -92.98941 | 35084 ft | 542 kts | 44° |
| 2026-04-26 01:41 | 49.41553 | -92.90793 | 35088 ft | 542 kts | 44° |
| 2026-04-26 01:41 | 49.46902 | -92.82619 | 35083 ft | 542 kts | 44° |
| 2026-04-26 01:42 | 49.52241 | -92.74435 | 35070 ft | 542 kts | 44° |
| 2026-04-26 01:42 | 49.57580 | -92.66223 | 35063 ft | 542 kts | 44° |
| 2026-04-26 01:43 | 49.62906 | -92.58005 | 35056 ft | 541 kts | 44° |
| 2026-04-26 01:43 | 49.68216 | -92.49783 | 35049 ft | 541 kts | 45° |
| 2026-04-26 01:44 | 49.73486 | -92.41598 | 35057 ft | 541 kts | 45° |
| 2026-04-26 01:44 | 49.78775 | -92.33356 | 35063 ft | 539 kts | 45° |
| 2026-04-26 01:45 | 49.84041 | -92.25122 | 35068 ft | 538 kts | 45° |
| 2026-04-26 01:45 | 49.89305 | -92.16865 | 35071 ft | 538 kts | 45° |
| 2026-04-26 01:46 | 49.94551 | -92.08608 | 35055 ft | 537 kts | 45° |
| 2026-04-26 01:46 | 49.99818 | -92.00373 | 35046 ft | 536 kts | 40° |
| 2026-04-26 01:47 | 50.05738 | -91.93331 | 35035 ft | 535 kts | 36° |
| 2026-04-26 01:47 | 50.11716 | -91.86407 | 35033 ft | 535 kts | 36° |
| 2026-04-26 01:48 | 50.17663 | -91.79449 | 35033 ft | 534 kts | 36° |
| 2026-04-26 01:48 | 50.23614 | -91.72494 | 35051 ft | 534 kts | 36° |
| 2026-04-26 01:49 | 50.29550 | -91.65517 | 35068 ft | 533 kts | 36° |
| 2026-04-26 01:49 | 50.35479 | -91.58535 | 35081 ft | 533 kts | 36° |
| 2026-04-26 01:50 | 50.41358 | -91.51585 | 35083 ft | 532 kts | 36° |
| 2026-04-26 01:50 | 50.47264 | -91.44583 | 35083 ft | 531 kts | 36° |
| 2026-04-26 01:51 | 50.53150 | -91.37582 | 35079 ft | 529 kts | 36° |
| 2026-04-26 01:51 | 50.59009 | -91.30591 | 35078 ft | 529 kts | 36° |